sensor_id;sensor_type;location;lat;lon;timestamp;temperature;humidity
35603;DHT22;21725;50.836;4.368;2022-09-09T00:03:44;18.50;99.90
35603;DHT22;21725;50.836;4.368;2022-09-09T00:06:27;18.60;99.90
35603;DHT22;21725;50.836;4.368;2022-09-09T00:09:01;18.60;99.90
35603;DHT22;21725;50.836;4.368;2022-09-09T00:14:31;18.60;99.90
35603;DHT22;21725;50.836;4.368;2022-09-09T00:17:03;18.50;99.90
35603;DHT22;21725;50.836;4.368;2022-09-09T00:19:47;18.50;99.90
35603;DHT22;21725;50.836;4.368;2022-09-09T00:22:34;18.30;99.90
35603;DHT22;21725;50.836;4.368;2022-09-09T00:25:12;18.30;99.90
35603;DHT22;21725;50.836;4.368;2022-09-09T00:32:47;18.30;99.90
35603;DHT22;21725;50.836;4.368;2022-09-09T00:35:23;18.30;99.90
35603;DHT22;21725;50.836;4.368;2022-09-09T00:37:53;18.30;99.90
35603;DHT22;21725;50.836;4.368;2022-09-09T00:40:30;18.40;99.90
35603;DHT22;21725;50.836;4.368;2022-09-09T00:46:10;18.50;99.90
35603;DHT22;21725;50.836;4.368;2022-09-09T00:57:34;18.60;99.90
35603;DHT22;21725;50.836;4.368;2022-09-09T01:00:23;18.60;99.90
35603;DHT22;21725;50.836;4.368;2022-09-09T01:08:01;18.70;99.90
35603;DHT22;21725;50.836;4.368;2022-09-09T01:10:51;18.70;99.90
35603;DHT22;21725;50.836;4.368;2022-09-09T01:13:33;18.90;99.90
35603;DHT22;21725;50.836;4.368;2022-09-09T01:16:01;18.70;99.90
35603;DHT22;21725;50.836;4.368;2022-09-09T01:18:32;18.60;99.90
35603;DHT22;21725;50.836;4.368;2022-09-09T01:21:02;18.60;99.90
35603;DHT22;21725;50.836;4.368;2022-09-09T01:24:33;18.60;99.90
35603;DHT22;21725;50.836;4.368;2022-09-09T01:26:39;18.60;99.90
35603;DHT22;21725;50.836;4.368;2022-09-09T01:29:13;18.60;99.90
35603;DHT22;21725;50.836;4.368;2022-09-09T01:31:42;18.60;99.90
35603;DHT22;21725;50.836;4.368;2022-09-09T01:34:13;18.60;99.90
35603;DHT22;21725;50.836;4.368;2022-09-09T01:36:45;18.60;99.90
35603;DHT22;21725;50.836;4.368;2022-09-09T01:39:13;18.40;99.90
35603;DHT22;21725;50.836;4.368;2022-09-09T01:41:39;18.40;99.90
35603;DHT22;21725;50.836;4.368;2022-09-09T01:44:05;18.50;99.90
35603;DHT22;21725;50.836;4.368;2022-09-09T01:46:33;18.40;99.90
35603;DHT22;21725;50.836;4.368;2022-09-09T01:49:00;18.30;99.90
35603;DHT22;21725;50.836;4.368;2022-09-09T01:51:27;18.40;99.90
35603;DHT22;21725;50.836;4.368;2022-09-09T01:53:53;18.50;99.90
35603;DHT22;21725;50.836;4.368;2022-09-09T02:02:03;18.50;99.90
35603;DHT22;21725;50.836;4.368;2022-09-09T02:04:42;18.30;99.90
35603;DHT22;21725;50.836;4.368;2022-09-09T02:07:38;18.30;99.90
35603;DHT22;21725;50.836;4.368;2022-09-09T02:10:22;18.40;99.90
35603;DHT22;21725;50.836;4.368;2022-09-09T02:13:09;18.30;99.90
35603;DHT22;21725;50.836;4.368;2022-09-09T02:15:42;18.30;99.90
35603;DHT22;21725;50.836;4.368;2022-09-09T02:18:12;18.40;99.90
35603;DHT22;21725;50.836;4.368;2022-09-09T02:20:39;18.50;99.90
35603;DHT22;21725;50.836;4.368;2022-09-09T02:23:07;18.40;99.90
35603;DHT22;21725;50.836;4.368;2022-09-09T02:25:35;18.40;99.90
35603;DHT22;21725;50.836;4.368;2022-09-09T02:28:03;18.40;99.90
35603;DHT22;21725;50.836;4.368;2022-09-09T02:30:32;18.40;99.90
35603;DHT22;21725;50.836;4.368;2022-09-09T02:33:14;18.50;99.90
35603;DHT22;21725;50.836;4.368;2022-09-09T02:35:42;18.40;99.90
35603;DHT22;21725;50.836;4.368;2022-09-09T02:38:12;18.50;99.90
35603;DHT22;21725;50.836;4.368;2022-09-09T02:40:39;18.50;99.90
35603;DHT22;21725;50.836;4.368;2022-09-09T02:43:04;18.50;99.90
35603;DHT22;21725;50.836;4.368;2022-09-09T02:45:43;18.50;99.90
35603;DHT22;21725;50.836;4.368;2022-09-09T02:51:08;18.60;99.90
35603;DHT22;21725;50.836;4.368;2022-09-09T02:53:47;18.70;99.90
35603;DHT22;21725;50.836;4.368;2022-09-09T02:56:17;18.50;99.90
35603;DHT22;21725;50.836;4.368;2022-09-09T02:58:45;18.60;99.90
35603;DHT22;21725;50.836;4.368;2022-09-09T03:01:11;18.50;99.90
35603;DHT22;21725;50.836;4.368;2022-09-09T03:03:37;18.50;99.90
35603;DHT22;21725;50.836;4.368;2022-09-09T03:06:04;18.50;99.90
35603;DHT22;21725;50.836;4.368;2022-09-09T03:08:31;18.60;99.90
35603;DHT22;21725;50.836;4.368;2022-09-09T03:10:59;18.60;99.90
35603;DHT22;21725;50.836;4.368;2022-09-09T03:13:26;18.50;99.90
35603;DHT22;21725;50.836;4.368;2022-09-09T03:15:52;18.50;99.90
35603;DHT22;21725;50.836;4.368;2022-09-09T03:18:18;18.50;99.90
35603;DHT22;21725;50.836;4.368;2022-09-09T03:20:43;18.60;99.90
35603;DHT22;21725;50.836;4.368;2022-09-09T03:23:12;18.40;99.90
35603;DHT22;21725;50.836;4.368;2022-09-09T03:25:39;18.50;99.90
35603;DHT22;21725;50.836;4.368;2022-09-09T03:28:04;18.40;99.90
35603;DHT22;21725;50.836;4.368;2022-09-09T03:30:30;18.40;99.90
35603;DHT22;21725;50.836;4.368;2022-09-09T03:32:58;18.50;99.90
35603;DHT22;21725;50.836;4.368;2022-09-09T03:35:23;18.40;99.90
35603;DHT22;21725;50.836;4.368;2022-09-09T03:37:49;18.40;99.90
35603;DHT22;21725;50.836;4.368;2022-09-09T03:40:15;18.30;99.90
35603;DHT22;21725;50.836;4.368;2022-09-09T03:42:41;18.30;99.90
35603;DHT22;21725;50.836;4.368;2022-09-09T03:45:08;18.30;99.90
35603;DHT22;21725;50.836;4.368;2022-09-09T03:47:35;18.30;99.90
35603;DHT22;21725;50.836;4.368;2022-09-09T03:50:00;18.20;99.90
35603;DHT22;21725;50.836;4.368;2022-09-09T03:52:26;18.30;99.90
35603;DHT22;21725;50.836;4.368;2022-09-09T03:54:53;18.30;99.90
35603;DHT22;21725;50.836;4.368;2022-09-09T03:57:20;18.30;99.90
35603;DHT22;21725;50.836;4.368;2022-09-09T03:59:47;18.40;99.90
35603;DHT22;21725;50.836;4.368;2022-09-09T04:02:12;18.40;99.90
35603;DHT22;21725;50.836;4.368;2022-09-09T04:04:38;18.40;99.90
35603;DHT22;21725;50.836;4.368;2022-09-09T04:29:36;15.80;99.90
35603;DHT22;21725;50.836;4.368;2022-09-09T04:32:02;15.70;99.90
35603;DHT22;21725;50.836;4.368;2022-09-09T04:34:28;15.90;99.90
35603;DHT22;21725;50.836;4.368;2022-09-09T04:36:55;16.40;99.90
35603;DHT22;21725;50.836;4.368;2022-09-09T04:39:22;16.80;99.90
35603;DHT22;21725;50.836;4.368;2022-09-09T04:41:48;17.20;99.90
35603;DHT22;21725;50.836;4.368;2022-09-09T04:44:14;17.50;99.90
35603;DHT22;21725;50.836;4.368;2022-09-09T04:46:39;17.70;99.90
35603;DHT22;21725;50.836;4.368;2022-09-09T04:49:07;17.80;99.90
35603;DHT22;21725;50.836;4.368;2022-09-09T04:51:33;17.90;99.90
35603;DHT22;21725;50.836;4.368;2022-09-09T04:53:58;18.00;99.90
35603;DHT22;21725;50.836;4.368;2022-09-09T04:56:24;18.00;99.90
35603;DHT22;21725;50.836;4.368;2022-09-09T04:58:52;18.00;99.90
35603;DHT22;21725;50.836;4.368;2022-09-09T05:01:20;18.00;99.90
35603;DHT22;21725;50.836;4.368;2022-09-09T05:03:47;18.10;99.90
35603;DHT22;21725;50.836;4.368;2022-09-09T05:06:21;18.10;99.90
35603;DHT22;21725;50.836;4.368;2022-09-09T05:08:47;18.20;99.90
35603;DHT22;21725;50.836;4.368;2022-09-09T05:11:18;18.20;99.90
35603;DHT22;21725;50.836;4.368;2022-09-09T05:13:45;18.20;99.90
35603;DHT22;21725;50.836;4.368;2022-09-09T05:16:11;18.10;99.90
35603;DHT22;21725;50.836;4.368;2022-09-09T05:18:41;18.10;99.90
35603;DHT22;21725;50.836;4.368;2022-09-09T05:21:11;18.20;99.90
35603;DHT22;21725;50.836;4.368;2022-09-09T05:23:37;18.30;99.90
35603;DHT22;21725;50.836;4.368;2022-09-09T05:26:04;18.40;99.90
35603;DHT22;21725;50.836;4.368;2022-09-09T05:28:30;18.60;99.90
35603;DHT22;21725;50.836;4.368;2022-09-09T05:31:00;18.70;99.90
35603;DHT22;21725;50.836;4.368;2022-09-09T05:33:27;18.70;99.90
35603;DHT22;21725;50.836;4.368;2022-09-09T05:36:06;18.80;99.90
35603;DHT22;21725;50.836;4.368;2022-09-09T05:38:33;18.80;99.90
35603;DHT22;21725;50.836;4.368;2022-09-09T05:41:04;18.90;99.90
35603;DHT22;21725;50.836;4.368;2022-09-09T05:43:30;18.90;99.90
35603;DHT22;21725;50.836;4.368;2022-09-09T05:46:08;18.80;99.90
35603;DHT22;21725;50.836;4.368;2022-09-09T05:48:36;18.90;99.90
35603;DHT22;21725;50.836;4.368;2022-09-09T05:51:03;19.10;99.90
35603;DHT22;21725;50.836;4.368;2022-09-09T05:53:30;19.00;99.90
35603;DHT22;21725;50.836;4.368;2022-09-09T05:58:53;19.10;99.90
35603;DHT22;21725;50.836;4.368;2022-09-09T06:01:24;18.80;99.90
35603;DHT22;21725;50.836;4.368;2022-09-09T06:03:51;18.80;99.90
35603;DHT22;21725;50.836;4.368;2022-09-09T06:06:24;18.90;99.90
35603;DHT22;21725;50.836;4.368;2022-09-09T06:08:55;18.90;99.90
35603;DHT22;21725;50.836;4.368;2022-09-09T06:11:39;18.90;99.90
35603;DHT22;21725;50.836;4.368;2022-09-09T06:14:06;19.00;99.90
35603;DHT22;21725;50.836;4.368;2022-09-09T06:16:33;19.10;99.90
35603;DHT22;21725;50.836;4.368;2022-09-09T06:18:59;19.10;99.90
35603;DHT22;21725;50.836;4.368;2022-09-09T06:21:32;19.40;99.90
35603;DHT22;21725;50.836;4.368;2022-09-09T06:23:58;19.40;99.90
35603;DHT22;21725;50.836;4.368;2022-09-09T06:26:32;19.40;99.90
35603;DHT22;21725;50.836;4.368;2022-09-09T06:28:59;19.20;99.90
35603;DHT22;21725;50.836;4.368;2022-09-09T06:31:28;19.10;99.90
35603;DHT22;21725;50.836;4.368;2022-09-09T06:33:56;19.20;99.90
35603;DHT22;21725;50.836;4.368;2022-09-09T06:36:30;19.40;99.90
35603;DHT22;21725;50.836;4.368;2022-09-09T06:38:56;19.60;99.90
35603;DHT22;21725;50.836;4.368;2022-09-09T06:41:23;19.60;99.90
35603;DHT22;21725;50.836;4.368;2022-09-09T06:43:50;19.50;99.90
35603;DHT22;21725;50.836;4.368;2022-09-09T06:46:18;19.50;99.90
35603;DHT22;21725;50.836;4.368;2022-09-09T06:48:45;19.50;99.90
35603;DHT22;21725;50.836;4.368;2022-09-09T06:51:18;19.40;99.90
35603;DHT22;21725;50.836;4.368;2022-09-09T06:53:45;19.20;99.90
35603;DHT22;21725;50.836;4.368;2022-09-09T06:56:19;19.20;99.90
35603;DHT22;21725;50.836;4.368;2022-09-09T06:58:52;19.40;99.90
35603;DHT22;21725;50.836;4.368;2022-09-09T07:01:36;19.60;99.90
35603;DHT22;21725;50.836;4.368;2022-09-09T07:04:04;19.70;99.90
35603;DHT22;21725;50.836;4.368;2022-09-09T07:06:36;19.50;99.90
35603;DHT22;21725;50.836;4.368;2022-09-09T07:09:08;19.50;99.90
35603;DHT22;21725;50.836;4.368;2022-09-09T07:11:41;19.50;99.90
35603;DHT22;21725;50.836;4.368;2022-09-09T07:14:07;19.60;99.90
35603;DHT22;21725;50.836;4.368;2022-09-09T07:16:33;19.60;99.90
35603;DHT22;21725;50.836;4.368;2022-09-09T07:19:03;19.70;99.90
35603;DHT22;21725;50.836;4.368;2022-09-09T07:21:32;19.80;99.90
35603;DHT22;21725;50.836;4.368;2022-09-09T07:23:59;19.80;99.90
35603;DHT22;21725;50.836;4.368;2022-09-09T07:26:27;19.80;99.90
35603;DHT22;21725;50.836;4.368;2022-09-09T07:28:53;19.80;99.90
35603;DHT22;21725;50.836;4.368;2022-09-09T07:31:26;19.70;99.90
35603;DHT22;21725;50.836;4.368;2022-09-09T07:33:52;19.80;99.90
35603;DHT22;21725;50.836;4.368;2022-09-09T07:36:35;19.60;99.90
35603;DHT22;21725;50.836;4.368;2022-09-09T07:39:04;19.80;99.90
35603;DHT22;21725;50.836;4.368;2022-09-09T07:41:42;19.80;99.90
35603;DHT22;21725;50.836;4.368;2022-09-09T07:44:19;19.70;99.90
35603;DHT22;21725;50.836;4.368;2022-09-09T07:46:46;19.60;99.90
35603;DHT22;21725;50.836;4.368;2022-09-09T07:49:14;19.50;99.90
35603;DHT22;21725;50.836;4.368;2022-09-09T07:51:42;19.60;99.90
35603;DHT22;21725;50.836;4.368;2022-09-09T07:54:11;19.40;99.90
35603;DHT22;21725;50.836;4.368;2022-09-09T07:56:38;19.70;99.90
35603;DHT22;21725;50.836;4.368;2022-09-09T07:59:04;19.70;99.90
35603;DHT22;21725;50.836;4.368;2022-09-09T08:01:40;19.60;99.90
35603;DHT22;21725;50.836;4.368;2022-09-09T08:04:12;19.70;99.90
35603;DHT22;21725;50.836;4.368;2022-09-09T08:06:44;19.70;99.90
35603;DHT22;21725;50.836;4.368;2022-09-09T08:09:10;19.70;99.90
35603;DHT22;21725;50.836;4.368;2022-09-09T08:11:37;19.80;99.90
35603;DHT22;21725;50.836;4.368;2022-09-09T08:14:03;19.90;99.90
35603;DHT22;21725;50.836;4.368;2022-09-09T08:16:42;20.10;99.90
35603;DHT22;21725;50.836;4.368;2022-09-09T08:19:11;20.30;99.90
35603;DHT22;21725;50.836;4.368;2022-09-09T08:21:44;20.30;99.90
35603;DHT22;21725;50.836;4.368;2022-09-09T08:24:13;20.40;99.90
35603;DHT22;21725;50.836;4.368;2022-09-09T08:26:46;20.40;99.90
35603;DHT22;21725;50.836;4.368;2022-09-09T08:29:15;20.20;99.90
35603;DHT22;21725;50.836;4.368;2022-09-09T08:31:49;20.10;99.90
35603;DHT22;21725;50.836;4.368;2022-09-09T08:34:15;20.20;99.90
35603;DHT22;21725;50.836;4.368;2022-09-09T08:36:43;20.10;99.90
35603;DHT22;21725;50.836;4.368;2022-09-09T08:39:11;20.20;99.90
35603;DHT22;21725;50.836;4.368;2022-09-09T08:58:15;20.20;99.90
35603;DHT22;21725;50.836;4.368;2022-09-09T09:11:56;20.10;99.90
35603;DHT22;21725;50.836;4.368;2022-09-09T09:14:29;20.20;99.90
35603;DHT22;21725;50.836;4.368;2022-09-09T09:16:59;20.10;99.90
35603;DHT22;21725;50.836;4.368;2022-09-09T09:19:27;20.10;99.90
35603;DHT22;21725;50.836;4.368;2022-09-09T09:27:32;20.00;99.90
35603;DHT22;21725;50.836;4.368;2022-09-09T09:30:22;19.90;99.90
35603;DHT22;21725;50.836;4.368;2022-09-09T09:32:59;19.90;99.90
35603;DHT22;21725;50.836;4.368;2022-09-09T09:35:27;19.80;99.90
35603;DHT22;21725;50.836;4.368;2022-09-09T09:37:52;19.80;99.90
35603;DHT22;21725;50.836;4.368;2022-09-09T09:40:21;19.70;99.90
35603;DHT22;21725;50.836;4.368;2022-09-09T09:43:01;19.80;99.90
35603;DHT22;21725;50.836;4.368;2022-09-09T09:45:45;19.80;99.90
35603;DHT22;21725;50.836;4.368;2022-09-09T09:48:13;19.80;99.90
35603;DHT22;21725;50.836;4.368;2022-09-09T09:50:58;20.00;99.90
35603;DHT22;21725;50.836;4.368;2022-09-09T09:53:35;20.10;99.90
35603;DHT22;21725;50.836;4.368;2022-09-09T09:56:11;20.30;99.90
35603;DHT22;21725;50.836;4.368;2022-09-09T09:58:50;20.30;99.90
35603;DHT22;21725;50.836;4.368;2022-09-09T10:01:35;20.40;99.90
35603;DHT22;21725;50.836;4.368;2022-09-09T10:04:15;20.40;99.90
35603;DHT22;21725;50.836;4.368;2022-09-09T10:28:44;17.60;99.90
35603;DHT22;21725;50.836;4.368;2022-09-09T10:31:28;17.60;99.90
35603;DHT22;21725;50.836;4.368;2022-09-09T10:34:08;18.30;99.90
35603;DHT22;21725;50.836;4.368;2022-09-09T10:36:45;19.00;99.90
35603;DHT22;21725;50.836;4.368;2022-09-09T10:39:33;19.60;99.90
35603;DHT22;21725;50.836;4.368;2022-09-09T10:42:12;20.00;99.90
35603;DHT22;21725;50.836;4.368;2022-09-09T10:55:43;21.10;99.90
35603;DHT22;21725;50.836;4.368;2022-09-09T10:58:17;21.20;99.90
35603;DHT22;21725;50.836;4.368;2022-09-09T11:00:47;21.40;99.90
35603;DHT22;21725;50.836;4.368;2022-09-09T11:03:26;21.40;99.90
35603;DHT22;21725;50.836;4.368;2022-09-09T11:06:01;21.60;99.90
35603;DHT22;21725;50.836;4.368;2022-09-09T11:08:31;21.50;99.90
35603;DHT22;21725;50.836;4.368;2022-09-09T11:11:21;21.60;99.90
35603;DHT22;21725;50.836;4.368;2022-09-09T11:19:30;21.40;99.90
35603;DHT22;21725;50.836;4.368;2022-09-09T11:22:04;21.30;99.90
35603;DHT22;21725;50.836;4.368;2022-09-09T11:24:41;21.30;99.90
35603;DHT22;21725;50.836;4.368;2022-09-09T11:33:00;21.20;99.90
35603;DHT22;21725;50.836;4.368;2022-09-09T11:41:16;21.20;99.90
35603;DHT22;21725;50.836;4.368;2022-09-09T11:43:53;21.20;99.90
35603;DHT22;21725;50.836;4.368;2022-09-09T11:46:22;21.10;99.90
35603;DHT22;21725;50.836;4.368;2022-09-09T11:49:01;20.70;99.90
35603;DHT22;21725;50.836;4.368;2022-09-09T11:51:30;21.20;99.90
35603;DHT22;21725;50.836;4.368;2022-09-09T11:54:02;21.20;99.90
35603;DHT22;21725;50.836;4.368;2022-09-09T11:56:44;21.30;99.90
35603;DHT22;21725;50.836;4.368;2022-09-09T12:02:27;21.40;99.90
35603;DHT22;21725;50.836;4.368;2022-09-09T12:05:04;21.60;99.90
35603;DHT22;21725;50.836;4.368;2022-09-09T12:08:05;21.50;99.90
35603;DHT22;21725;50.836;4.368;2022-09-09T12:10:39;21.40;99.90
35603;DHT22;21725;50.836;4.368;2022-09-09T12:13:25;21.30;99.90
35603;DHT22;21725;50.836;4.368;2022-09-09T12:15:56;21.10;99.90
35603;DHT22;21725;50.836;4.368;2022-09-09T12:18:41;20.80;99.90
35603;DHT22;21725;50.836;4.368;2022-09-09T12:21:31;20.80;99.90
35603;DHT22;21725;50.836;4.368;2022-09-09T12:24:09;20.70;99.90
35603;DHT22;21725;50.836;4.368;2022-09-09T12:26:56;20.60;99.90
35603;DHT22;21725;50.836;4.368;2022-09-09T12:32:20;21.20;99.90
35603;DHT22;21725;50.836;4.368;2022-09-09T12:34:54;21.20;99.90
35603;DHT22;21725;50.836;4.368;2022-09-09T12:37:31;21.40;99.90
35603;DHT22;21725;50.836;4.368;2022-09-09T12:39:59;21.30;99.90
35603;DHT22;21725;50.836;4.368;2022-09-09T12:42:27;21.30;99.90
35603;DHT22;21725;50.836;4.368;2022-09-09T12:45:01;21.30;99.90
35603;DHT22;21725;50.836;4.368;2022-09-09T12:47:38;21.40;99.90
35603;DHT22;21725;50.836;4.368;2022-09-09T12:50:22;21.50;99.90
35603;DHT22;21725;50.836;4.368;2022-09-09T12:52:52;21.60;99.90
35603;DHT22;21725;50.836;4.368;2022-09-09T12:55:21;21.50;99.90
35603;DHT22;21725;50.836;4.368;2022-09-09T12:57:51;21.30;99.90
35603;DHT22;21725;50.836;4.368;2022-09-09T13:00:20;21.40;99.90
35603;DHT22;21725;50.836;4.368;2022-09-09T13:02:53;21.40;99.90
35603;DHT22;21725;50.836;4.368;2022-09-09T13:05:24;21.50;99.90
35603;DHT22;21725;50.836;4.368;2022-09-09T13:07:50;21.50;99.90
35603;DHT22;21725;50.836;4.368;2022-09-09T13:10:28;21.40;99.90
35603;DHT22;21725;50.836;4.368;2022-09-09T13:12:57;21.30;99.90
35603;DHT22;21725;50.836;4.368;2022-09-09T13:15:26;21.30;99.90
35603;DHT22;21725;50.836;4.368;2022-09-09T13:17:57;21.70;99.90
35603;DHT22;21725;50.836;4.368;2022-09-09T13:20:36;21.30;99.90
35603;DHT22;21725;50.836;4.368;2022-09-09T13:23:02;21.50;99.90
35603;DHT22;21725;50.836;4.368;2022-09-09T13:25:29;21.60;99.90
35603;DHT22;21725;50.836;4.368;2022-09-09T13:28:18;21.70;99.90
35603;DHT22;21725;50.836;4.368;2022-09-09T13:30:56;21.60;99.90
35603;DHT22;21725;50.836;4.368;2022-09-09T13:33:29;21.40;99.90
35603;DHT22;21725;50.836;4.368;2022-09-09T13:36:02;21.60;99.90
35603;DHT22;21725;50.836;4.368;2022-09-09T13:38:32;21.90;99.40
35603;DHT22;21725;50.836;4.368;2022-09-09T13:41:10;21.90;98.90
35603;DHT22;21725;50.836;4.368;2022-09-09T13:43:43;21.90;99.00
35603;DHT22;21725;50.836;4.368;2022-09-09T13:49:00;22.30;98.20
35603;DHT22;21725;50.836;4.368;2022-09-09T13:51:34;22.40;98.10
35603;DHT22;21725;50.836;4.368;2022-09-09T13:54:00;22.30;97.80
35603;DHT22;21725;50.836;4.368;2022-09-09T13:56:26;22.20;98.20
35603;DHT22;21725;50.836;4.368;2022-09-09T13:58:52;22.20;98.00
35603;DHT22;21725;50.836;4.368;2022-09-09T14:01:18;22.20;97.90
35603;DHT22;21725;50.836;4.368;2022-09-09T14:03:43;22.30;97.90
35603;DHT22;21725;50.836;4.368;2022-09-09T14:06:12;22.40;97.50
35603;DHT22;21725;50.836;4.368;2022-09-09T14:08:37;22.20;97.80
35603;DHT22;21725;50.836;4.368;2022-09-09T14:11:04;22.30;98.20
35603;DHT22;21725;50.836;4.368;2022-09-09T14:13:30;22.10;98.00
35603;DHT22;21725;50.836;4.368;2022-09-09T14:15:57;22.00;98.30
35603;DHT22;21725;50.836;4.368;2022-09-09T14:18:23;21.90;98.70
35603;DHT22;21725;50.836;4.368;2022-09-09T14:20:50;21.80;98.90
35603;DHT22;21725;50.836;4.368;2022-09-09T14:23:16;21.60;99.20
35603;DHT22;21725;50.836;4.368;2022-09-09T14:25:43;21.60;99.40
35603;DHT22;21725;50.836;4.368;2022-09-09T14:28:10;21.80;99.00
35603;DHT22;21725;50.836;4.368;2022-09-09T14:30:38;21.90;98.80
35603;DHT22;21725;50.836;4.368;2022-09-09T14:33:04;22.00;98.60
35603;DHT22;21725;50.836;4.368;2022-09-09T14:35:30;22.10;98.40
35603;DHT22;21725;50.836;4.368;2022-09-09T14:37:58;22.20;98.30
35603;DHT22;21725;50.836;4.368;2022-09-09T14:40:24;22.30;98.10
35603;DHT22;21725;50.836;4.368;2022-09-09T14:42:52;22.40;98.10
35603;DHT22;21725;50.836;4.368;2022-09-09T14:45:18;22.40;98.30
35603;DHT22;21725;50.836;4.368;2022-09-09T14:47:43;22.50;98.00
35603;DHT22;21725;50.836;4.368;2022-09-09T14:50:09;22.40;97.90
35603;DHT22;21725;50.836;4.368;2022-09-09T14:52:35;22.30;98.00
35603;DHT22;21725;50.836;4.368;2022-09-09T14:55:02;22.20;97.90
35603;DHT22;21725;50.836;4.368;2022-09-09T14:57:28;22.20;97.60
35603;DHT22;21725;50.836;4.368;2022-09-09T14:59:53;22.30;97.20
35603;DHT22;21725;50.836;4.368;2022-09-09T15:02:21;22.40;97.20
35603;DHT22;21725;50.836;4.368;2022-09-09T15:04:47;22.40;96.70
35603;DHT22;21725;50.836;4.368;2022-09-09T15:07:36;22.30;96.70
35603;DHT22;21725;50.836;4.368;2022-09-09T15:10:05;22.20;96.90
35603;DHT22;21725;50.836;4.368;2022-09-09T15:12:34;22.20;96.90
35603;DHT22;21725;50.836;4.368;2022-09-09T15:15:00;22.30;96.90
35603;DHT22;21725;50.836;4.368;2022-09-09T15:17:26;22.30;97.00
35603;DHT22;21725;50.836;4.368;2022-09-09T15:19:52;22.60;96.60
35603;DHT22;21725;50.836;4.368;2022-09-09T15:22:18;22.50;96.40
35603;DHT22;21725;50.836;4.368;2022-09-09T15:24:44;22.40;96.70
35603;DHT22;21725;50.836;4.368;2022-09-09T15:27:10;22.30;96.60
35603;DHT22;21725;50.836;4.368;2022-09-09T15:29:35;22.30;96.80
35603;DHT22;21725;50.836;4.368;2022-09-09T15:32:02;22.20;97.10
35603;DHT22;21725;50.836;4.368;2022-09-09T15:34:28;22.20;97.30
35603;DHT22;21725;50.836;4.368;2022-09-09T15:36:53;22.00;97.00
35603;DHT22;21725;50.836;4.368;2022-09-09T15:39:20;21.90;97.30
35603;DHT22;21725;50.836;4.368;2022-09-09T15:41:48;21.70;97.70
35603;DHT22;21725;50.836;4.368;2022-09-09T15:44:14;21.70;97.90
35603;DHT22;21725;50.836;4.368;2022-09-09T15:46:42;21.80;97.60
35603;DHT22;21725;50.836;4.368;2022-09-09T15:51:40;21.80;98.80
35603;DHT22;21725;50.836;4.368;2022-09-09T15:54:13;21.80;98.90
35603;DHT22;21725;50.836;4.368;2022-09-09T15:56:40;22.10;98.50
35603;DHT22;21725;50.836;4.368;2022-09-09T15:59:06;22.10;98.10
35603;DHT22;21725;50.836;4.368;2022-09-09T16:01:32;21.80;98.40
35603;DHT22;21725;50.836;4.368;2022-09-09T16:03:59;21.90;98.30
35603;DHT22;21725;50.836;4.368;2022-09-09T16:28:18;19.30;99.90
35603;DHT22;21725;50.836;4.368;2022-09-09T16:30:44;19.40;99.90
35603;DHT22;21725;50.836;4.368;2022-09-09T16:33:10;19.70;99.90
35603;DHT22;21725;50.836;4.368;2022-09-09T16:35:39;20.00;99.90
35603;DHT22;21725;50.836;4.368;2022-09-09T16:38:05;20.30;99.90
35603;DHT22;21725;50.836;4.368;2022-09-09T16:40:34;20.60;99.90
35603;DHT22;21725;50.836;4.368;2022-09-09T16:43:00;20.90;99.90
35603;DHT22;21725;50.836;4.368;2022-09-09T16:45:26;20.90;99.90
35603;DHT22;21725;50.836;4.368;2022-09-09T16:47:52;21.10;99.90
35603;DHT22;21725;50.836;4.368;2022-09-09T16:50:18;21.20;99.90
35603;DHT22;21725;50.836;4.368;2022-09-09T16:52:44;21.30;99.90
35603;DHT22;21725;50.836;4.368;2022-09-09T16:55:10;21.40;99.90
35603;DHT22;21725;50.836;4.368;2022-09-09T16:57:35;21.50;99.90
35603;DHT22;21725;50.836;4.368;2022-09-09T17:00:02;21.50;99.90
35603;DHT22;21725;50.836;4.368;2022-09-09T17:02:31;21.40;99.90
35603;DHT22;21725;50.836;4.368;2022-09-09T17:04:56;21.60;99.90
35603;DHT22;21725;50.836;4.368;2022-09-09T17:07:22;21.60;99.90
35603;DHT22;21725;50.836;4.368;2022-09-09T17:09:48;21.60;99.90
35603;DHT22;21725;50.836;4.368;2022-09-09T17:12:14;21.50;99.90
35603;DHT22;21725;50.836;4.368;2022-09-09T17:14:42;21.60;99.90
35603;DHT22;21725;50.836;4.368;2022-09-09T17:17:08;21.80;99.90
35603;DHT22;21725;50.836;4.368;2022-09-09T17:19:34;21.80;99.90
35603;DHT22;21725;50.836;4.368;2022-09-09T17:21:59;21.60;99.90
35603;DHT22;21725;50.836;4.368;2022-09-09T17:24:26;21.50;99.90
35603;DHT22;21725;50.836;4.368;2022-09-09T17:26:54;21.50;99.90
35603;DHT22;21725;50.836;4.368;2022-09-09T17:29:20;21.30;99.90
35603;DHT22;21725;50.836;4.368;2022-09-09T17:31:46;21.10;99.90
35603;DHT22;21725;50.836;4.368;2022-09-09T17:34:12;21.00;99.90
35603;DHT22;21725;50.836;4.368;2022-09-09T17:36:38;20.80;99.90
35603;DHT22;21725;50.836;4.368;2022-09-09T17:39:06;20.60;99.90
35603;DHT22;21725;50.836;4.368;2022-09-09T17:41:37;20.50;99.90
35603;DHT22;21725;50.836;4.368;2022-09-09T17:44:04;20.30;99.90
35603;DHT22;21725;50.836;4.368;2022-09-09T17:46:38;20.40;99.90
35603;DHT22;21725;50.836;4.368;2022-09-09T17:49:07;20.30;99.90
35603;DHT22;21725;50.836;4.368;2022-09-09T17:51:35;20.30;99.90
35603;DHT22;21725;50.836;4.368;2022-09-09T17:54:07;20.20;99.90
35603;DHT22;21725;50.836;4.368;2022-09-09T17:56:33;20.20;99.90
35603;DHT22;21725;50.836;4.368;2022-09-09T17:59:01;20.40;99.90
35603;DHT22;21725;50.836;4.368;2022-09-09T18:01:29;20.40;99.80
35603;DHT22;21725;50.836;4.368;2022-09-09T18:03:57;20.30;99.90
35603;DHT22;21725;50.836;4.368;2022-09-09T18:06:25;20.20;99.80
35603;DHT22;21725;50.836;4.368;2022-09-09T18:08:57;20.20;99.90
35603;DHT22;21725;50.836;4.368;2022-09-09T18:11:28;20.30;99.70
35603;DHT22;21725;50.836;4.368;2022-09-09T18:14:00;20.30;99.60
35603;DHT22;21725;50.836;4.368;2022-09-09T18:16:27;20.30;99.30
35603;DHT22;21725;50.836;4.368;2022-09-09T18:18:57;20.30;99.50
35603;DHT22;21725;50.836;4.368;2022-09-09T18:21:43;20.20;99.70
35603;DHT22;21725;50.836;4.368;2022-09-09T18:24:10;20.20;99.90
35603;DHT22;21725;50.836;4.368;2022-09-09T18:26:37;20.20;99.90
35603;DHT22;21725;50.836;4.368;2022-09-09T18:29:07;20.10;99.90
35603;DHT22;21725;50.836;4.368;2022-09-09T18:31:34;20.20;99.90
35603;DHT22;21725;50.836;4.368;2022-09-09T18:34:09;20.20;99.90
35603;DHT22;21725;50.836;4.368;2022-09-09T18:36:44;20.20;99.90
35603;DHT22;21725;50.836;4.368;2022-09-09T18:39:13;20.20;99.90
35603;DHT22;21725;50.836;4.368;2022-09-09T18:41:44;20.20;99.90
35603;DHT22;21725;50.836;4.368;2022-09-09T18:44:16;20.30;99.90
35603;DHT22;21725;50.836;4.368;2022-09-09T18:46:43;20.30;99.90
35603;DHT22;21725;50.836;4.368;2022-09-09T18:49:09;20.10;99.90